Time;durP1;ratioP1;P1;durP2;ratioP2;P2;SDS_P1;SDS_P2;PMS_P1;PMS_P2;Temp;Humidity;BMP_temperature;BMP_pressure;BME280_temperature;BME280_humidity;BME280_pressure;Samples;Min_cycle;Max_cycle;Signal;HPM_P1;HPM_P2
2023/11/24 00:00:25;;;;;;;27.02;5.65;;;;;;;10.02;100.00;101308.06;5092479;28;20411;-70
2023/11/24 00:03:13;;;;;;;26.58;6.13;;;;;;;10.01;100.00;101330.94;5116417;28;20046;-71
2023/11/24 00:06:02;;;;;;;23.05;4.90;;;;;;;10.02;100.00;101324.41;5085966;28;20050;-70
2023/11/24 00:08:51;;;;;;;18.08;4.90;;;;;;;10.00;100.00;101323.81;5114991;28;20094;-70
2023/11/24 00:11:41;;;;;;;22.20;5.22;;;;;;;9.99;100.00;101330.38;5100305;28;20047;-70
2023/11/24 00:14:29;;;;;;;24.27;6.07;;;;;;;9.96;100.00;101336.31;5101175;28;20059;-70
2023/11/24 00:17:18;;;;;;;23.67;5.57;;;;;;;9.95;100.00;101329.22;5104664;27;20114;-70
2023/11/24 00:20:10;;;;;;;20.58;4.97;;;;;;;9.92;100.00;101316.94;5115168;27;20043;-69
2023/11/24 00:22:58;;;;;;;19.35;4.82;;;;;;;9.92;100.00;101318.84;5114833;28;20043;-70
2023/11/24 00:25:47;;;;;;;20.20;4.70;;;;;;;9.92;100.00;101329.72;5086957;28;20043;-69
2023/11/24 00:28:36;;;;;;;25.38;5.03;;;;;;;9.90;100.00;101342.75;5125582;27;20050;-70
2023/11/24 00:31:25;;;;;;;18.98;4.88;;;;;;;9.82;100.00;101353.00;5071321;28;20052;-70
2023/11/24 00:34:14;;;;;;;23.63;5.80;;;;;;;9.70;100.00;101356.91;5110637;27;20084;-70
2023/11/24 00:37:05;;;;;;;24.20;5.03;;;;;;;9.58;100.00;101356.97;5106350;27;20521;-70
2023/11/24 00:39:55;;;;;;;20.33;5.10;;;;;;;9.59;100.00;101339.56;5082216;28;20127;-69
2023/11/24 00:42:43;;;;;;;22.52;5.28;;;;;;;9.56;100.00;101343.63;5080482;28;20044;-70
2023/11/24 00:45:31;;;;;;;23.70;4.75;;;;;;;9.55;100.00;101355.59;5113981;28;20047;-70
2023/11/24 00:48:21;;;;;;;18.35;4.85;;;;;;;9.57;100.00;101372.47;5086493;28;20491;-70
2023/11/24 00:51:09;;;;;;;19.95;5.53;;;;;;;9.57;100.00;101377.06;5114566;28;20047;-70
2023/11/24 00:53:57;;;;;;;20.27;5.30;;;;;;;9.55;100.00;101369.19;5100168;28;20408;-69
2023/11/24 00:56:46;;;;;;;17.90;4.70;;;;;;;9.53;100.00;101356.91;5086933;28;20043;-69
2023/11/24 00:59:35;;;;;;;21.15;4.78;;;;;;;9.52;100.00;101366.13;5099669;28;20035;-69
2023/11/24 01:02:24;;;;;;;16.98;4.10;;;;;;;9.52;100.00;101352.53;5115609;28;20044;-70
2023/11/24 01:05:12;;;;;;;22.50;4.03;;;;;;;9.50;100.00;101350.06;5100806;28;20107;-70
2023/11/24 01:08:00;;;;;;;14.27;4.10;;;;;;;9.47;100.00;101342.38;5083465;28;20051;-70
2023/11/24 01:10:48;;;;;;;14.85;4.22;;;;;;;9.45;100.00;101338.25;5112774;28;20254;-71
2023/11/24 01:13:38;;;;;;;13.35;3.40;;;;;;;9.39;100.00;101332.75;5103941;28;20071;-70
2023/11/24 01:16:27;;;;;;;12.68;3.17;;;;;;;9.38;100.00;101331.09;5104132;28;20044;-70
2023/11/24 01:19:15;;;;;;;13.85;3.40;;;;;;;9.37;100.00;101332.16;5117281;28;20043;-71
2023/11/24 01:22:04;;;;;;;10.35;3.05;;;;;;;9.34;100.00;101335.38;5105787;28;20043;-68
2023/11/24 01:24:52;;;;;;;12.00;3.05;;;;;;;9.32;100.00;101321.22;5119876;28;20039;-69
2023/11/24 01:27:40;;;;;;;9.80;2.67;;;;;;;9.30;99.69;101330.69;5105008;28;20040;-70
2023/11/24 01:30:29;;;;;;;7.93;2.70;;;;;;;9.28;99.85;101327.38;5083445;27;20130;-68
2023/11/24 01:33:17;;;;;;;10.35;2.53;;;;;;;9.27;100.00;101323.84;5120904;27;20055;-70
2023/11/24 01:36:07;;;;;;;7.47;2.20;;;;;;;9.24;100.00;101324.34;5090771;28;20083;-70
2023/11/24 01:38:56;;;;;;;7.40;2.40;;;;;;;9.21;100.00;101324.00;5119617;28;20036;-70
2023/11/24 01:41:45;;;;;;;7.28;2.53;;;;;;;9.18;100.00;101319.88;5088896;28;20044;-70
2023/11/24 01:44:34;;;;;;;6.40;2.47;;;;;;;9.17;100.00;101327.22;5102366;28;20051;-70
2023/11/24 01:47:23;;;;;;;6.97;2.15;;;;;;;9.16;100.00;101322.88;5119200;28;20122;-70
2023/11/24 01:50:12;;;;;;;8.30;2.28;;;;;;;9.15;100.00;101317.66;5089838;28;20502;-70
2023/11/24 01:53:02;;;;;;;7.43;2.60;;;;;;;9.12;100.00;101312.72;5111939;27;20047;-70
2023/11/24 01:55:50;;;;;;;9.45;2.50;;;;;;;9.11;100.00;101308.34;5097703;27;20039;-70
2023/11/24 01:58:39;;;;;;;9.05;2.40;;;;;;;9.10;100.00;101323.84;5120927;27;20075;-70
2023/11/24 02:01:28;;;;;;;8.60;2.70;;;;;;;9.09;100.00;101321.34;5075896;28;20411;-72
2023/11/24 02:04:17;;;;;;;9.85;3.33;;;;;;;9.03;100.00;101317.72;5117750;28;20050;-71
2023/11/24 02:07:06;;;;;;;11.95;3.28;;;;;;;9.02;100.00;101326.13;5110124;27;20130;-70
2023/11/24 02:09:54;;;;;;;12.68;2.80;;;;;;;9.00;100.00;101328.28;5075042;28;20096;-71
2023/11/24 02:12:42;;;;;;;12.27;3.40;;;;;;;8.97;100.00;101315.97;5118666;27;20053;-70
2023/11/24 02:15:31;;;;;;;12.75;2.92;;;;;;;8.92;100.00;101319.47;5109223;27;20039;-71
2023/11/24 02:18:19;;;;;;;10.05;2.80;;;;;;;8.88;100.00;101321.00;5119644;27;20040;-68
2023/11/24 02:21:10;;;;;;;13.70;3.00;;;;;;;8.85;100.00;101331.53;5122482;27;20044;-71
2023/11/24 02:23:59;;;;;;;9.27;2.70;;;;;;;8.77;100.00;101312.91;5085476;28;20099;-70
2023/11/24 02:26:47;;;;;;;10.55;3.20;;;;;;;8.68;100.00;101302.44;5109478;28;20048;-71
2023/11/24 02:29:35;;;;;;;9.27;2.65;;;;;;;8.66;100.00;101309.16;5082598;28;20067;-70
2023/11/24 02:32:23;;;;;;;10.88;3.10;;;;;;;8.63;100.00;101301.50;5085844;28;20036;-69
2023/11/24 02:35:12;;;;;;;7.72;2.58;;;;;;;8.62;100.00;101294.44;5098356;28;20399;-67
2023/11/24 02:38:02;;;;;;;7.75;2.63;;;;;;;8.62;100.00;101297.16;5102761;28;20046;-70
2023/11/24 02:40:50;;;;;;;6.07;2.38;;;;;;;8.61;100.00;101285.47;5093430;27;20050;-70
2023/11/24 02:43:38;;;;;;;9.73;2.65;;;;;;;8.61;100.00;101281.91;5117916;28;20054;-70
2023/11/24 02:46:27;;;;;;;9.35;2.70;;;;;;;8.58;100.00;101276.97;5119209;28;20043;-68
2023/11/24 02:49:16;;;;;;;12.40;2.92;;;;;;;8.58;100.00;101277.78;5116916;28;20526;-71
2023/11/24 02:52:05;;;;;;;8.75;2.40;;;;;;;8.55;100.00;101264.72;5096424;28;20100;-70
2023/11/24 02:54:53;;;;;;;9.80;2.53;;;;;;;8.51;100.00;101256.25;5101938;28;20282;-70
2023/11/24 02:57:43;;;;;;;8.45;3.13;;;;;;;8.52;100.00;101252.44;5102411;28;20047;-70
2023/11/24 03:00:32;;;;;;;10.20;2.88;;;;;;;8.50;100.00;101235.56;5115446;28;20592;-70
2023/11/24 03:03:20;;;;;;;9.95;2.67;;;;;;;8.50;100.00;101241.00;5113533;28;20518;-70
2023/11/24 03:06:08;;;;;;;12.07;2.83;;;;;;;8.47;100.00;101238.78;5099664;28;20054;-70
2023/11/24 03:08:57;;;;;;;8.88;2.53;;;;;;;8.46;100.00;101230.88;5115786;28;20117;-71
2023/11/24 03:11:45;;;;;;;10.30;2.80;;;;;;;8.43;100.00;101229.47;5112768;28;20320;-70
2023/11/24 03:14:35;;;;;;;8.95;2.65;;;;;;;8.41;100.00;101226.16;5129601;27;20407;-71
2023/11/24 03:17:24;;;;;;;8.10;2.38;;;;;;;8.40;100.00;101229.13;5116176;28;20047;-70
2023/11/24 03:20:13;;;;;;;11.93;3.08;;;;;;;8.40;100.00;101224.53;5107215;28;20062;-71
2023/11/24 03:23:02;;;;;;;9.48;2.75;;;;;;;8.40;100.00;101221.81;5106785;27;20135;-70
2023/11/24 03:25:51;;;;;;;8.90;2.22;;;;;;;8.40;100.00;101219.09;5126698;27;20415;-69
2023/11/24 03:28:39;;;;;;;7.00;2.10;;;;;;;8.38;100.00;101215.75;5101598;28;20085;-70
2023/11/24 03:31:28;;;;;;;8.30;2.40;;;;;;;8.36;100.00;101215.19;5104422;27;20047;-70
2023/11/24 03:34:16;;;;;;;7.55;2.45;;;;;;;8.36;100.00;101208.94;5107958;27;20184;-70
2023/11/24 03:37:04;;;;;;;9.73;2.53;;;;;;;8.33;100.00;101205.63;5133882;27;20043;-70
2023/11/24 03:39:53;;;;;;;8.35;2.35;;;;;;;8.32;100.00;101208.59;5098304;27;20047;-71
2023/11/24 03:42:41;;;;;;;8.38;2.45;;;;;;;8.30;100.00;101205.31;5103557;27;20378;-70
2023/11/24 03:45:30;;;;;;;11.05;2.90;;;;;;;8.29;100.00;101209.06;5110237;28;20419;-70
2023/11/24 03:48:21;;;;;;;8.63;2.65;;;;;;;8.24;100.00;101200.84;5086064;28;20134;-70
2023/11/24 03:51:09;;;;;;;8.40;2.45;;;;;;;8.22;100.00;101202.97;5093619;28;20047;-70
2023/11/24 03:53:57;;;;;;;11.30;2.63;;;;;;;8.21;100.00;101207.59;5098291;28;20505;-70
2023/11/24 03:56:45;;;;;;;9.02;2.20;;;;;;;8.20;100.00;101205.09;5080375;28;20087;-70
2023/11/24 03:59:34;;;;;;;9.00;2.33;;;;;;;8.20;100.00;101202.38;5086929;27;20487;-71
2023/11/24 04:02:23;;;;;;;10.85;2.60;;;;;;;8.18;100.00;101201.78;5118591;27;20043;-70
2023/11/24 04:05:13;;;;;;;9.93;2.85;;;;;;;8.16;100.00;101204.78;5095093;28;20388;-69
2023/11/24 04:08:01;;;;;;;12.30;2.97;;;;;;;8.16;100.00;101206.66;5099677;28;20122;-70
2023/11/24 04:10:49;;;;;;;11.25;2.67;;;;;;;8.14;100.00;101206.09;5111862;27;20039;-70
2023/11/24 04:13:38;;;;;;;11.02;3.05;;;;;;;8.14;100.00;101214.22;5084481;28;20044;-70
2023/11/24 04:16:26;;;;;;;8.15;2.42;;;;;;;8.17;100.00;101216.44;5114930;28;20410;-70
2023/11/24 04:19:15;;;;;;;8.48;2.55;;;;;;;8.16;100.00;101221.06;5113087;28;20075;-70
2023/11/24 04:22:04;;;;;;;9.65;2.60;;;;;;;8.18;100.00;101218.09;5118917;27;20044;-70
2023/11/24 04:24:52;;;;;;;8.77;3.05;;;;;;;8.16;100.00;101215.63;5106510;28;20054;-70
2023/11/24 04:27:40;;;;;;;10.45;2.60;;;;;;;8.14;100.00;101211.50;5114736;28;20044;-70
2023/11/24 04:30:28;;;;;;;9.35;2.90;;;;;;;8.15;100.00;101213.16;5131984;27;20043;-70
2023/11/24 04:33:16;;;;;;;9.65;2.70;;;;;;;8.15;100.00;101207.72;5134281;27;20055;-70
2023/11/24 04:36:06;;;;;;;11.90;3.08;;;;;;;8.16;100.00;101210.19;5116313;28;20558;-70
2023/11/24 04:38:54;;;;;;;11.35;2.83;;;;;;;8.16;100.00;101202.06;5089488;28;20051;-70
2023/11/24 04:41:42;;;;;;;10.13;2.95;;;;;;;8.16;100.00;101185.78;5107566;28;20040;-69
2023/11/24 04:44:34;;;;;;;12.07;3.00;;;;;;;8.15;100.00;101186.00;5108521;28;20043;-70
2023/11/24 04:47:23;;;;;;;11.35;2.70;;;;;;;8.11;100.00;101170.22;5099249;28;20114;-69
2023/11/24 04:50:11;;;;;;;10.23;2.70;;;;;;;8.14;100.00;101185.19;5119523;27;20134;-70
2023/11/24 04:52:59;;;;;;;11.02;2.72;;;;;;;8.11;100.00;101181.06;5118163;27;20092;-70
2023/11/24 04:55:47;;;;;;;8.82;2.50;;;;;;;8.09;100.00;101175.06;5091105;28;20048;-69
2023/11/24 04:58:35;;;;;;;8.60;2.90;;;;;;;8.11;100.00;101164.78;5074579;28;20051;-70
2023/11/24 05:01:24;;;;;;;8.60;2.67;;;;;;;8.14;100.00;101163.47;5091272;28;20134;-71
2023/11/24 05:04:17;;;;;;;10.30;2.85;;;;;;;8.17;100.00;101170.31;5077728;28;20059;-70
2023/11/24 05:07:05;;;;;;;10.10;2.63;;;;;;;8.17;100.00;101162.16;5092096;28;20450;-70
2023/11/24 05:09:54;;;;;;;12.10;3.00;;;;;;;8.15;100.00;101156.97;5087596;28;20048;-69
2023/11/24 05:12:43;;;;;;;9.88;2.92;;;;;;;8.14;100.00;101157.22;5063593;28;20040;-70
2023/11/24 05:15:34;;;;;;;11.95;3.22;;;;;;;8.13;100.00;101150.13;5064702;28;20473;-71
2023/11/24 05:18:22;;;;;;;10.05;2.92;;;;;;;8.16;100.00;101144.25;5092532;28;20055;-73
2023/11/24 05:21:10;;;;;;;12.68;3.00;;;;;;;8.13;100.00;101148.28;5084630;28;20044;-71
2023/11/24 05:23:58;;;;;;;11.75;2.75;;;;;;;8.03;100.00;101154.34;5097639;28;20044;-71
2023/11/24 05:26:47;;;;;;;11.32;3.03;;;;;;;7.97;100.00;101147.16;5101654;28;20059;-70
2023/11/24 05:29:37;;;;;;;13.38;2.88;;;;;;;7.94;100.00;101158.50;5109025;28;20052;-70
2023/11/24 05:32:26;;;;;;;11.27;3.22;;;;;;;7.88;100.00;101149.41;5093477;28;20085;-71
2023/11/24 05:35:14;;;;;;;14.35;3.13;;;;;;;7.90;100.00;101149.19;5083433;28;20139;-73
2023/11/24 05:38:03;;;;;;;12.38;3.30;;;;;;;7.89;100.00;101152.97;5097204;28;20055;-70
2023/11/24 05:40:51;;;;;;;12.35;3.15;;;;;;;7.90;100.00;101146.47;5093757;28;20051;-69
2023/11/24 05:43:39;;;;;;;11.45;2.60;;;;;;;7.91;100.00;101148.09;5093161;28;20062;-70
2023/11/24 05:46:28;;;;;;;14.40;2.97;;;;;;;7.92;100.00;101146.25;5088215;28;20220;-70
2023/11/24 05:49:16;;;;;;;10.68;3.40;;;;;;;7.94;100.00;101149.50;5084825;28;20078;-71
2023/11/24 05:52:04;;;;;;;13.98;3.30;;;;;;;7.95;100.00;101137.59;5101920;28;20044;-69
2023/11/24 05:54:57;;;;;;;12.07;2.80;;;;;;;7.97;100.00;101151.75;5086989;28;20051;-69
2023/11/24 05:57:45;;;;;;;11.82;2.75;;;;;;;7.97;100.00;101140.91;5104845;28;20080;-69
2023/11/24 06:00:34;;;;;;;15.43;3.40;;;;;;;7.98;100.00;101137.94;5098594;28;20568;-68
2023/11/24 06:03:22;;;;;;;11.10;3.00;;;;;;;7.98;100.00;101148.78;5098464;28;20445;-70
2023/11/24 06:06:11;;;;;;;10.43;3.10;;;;;;;7.96;100.00;101159.09;5115865;28;20044;-70
2023/11/24 06:08:59;;;;;;;14.45;3.10;;;;;;;7.90;100.00;101157.31;5105919;27;20036;-69
2023/11/24 06:11:48;;;;;;;13.43;3.20;;;;;;;7.86;100.00;101145.31;5138751;27;20043;-70
2023/11/24 06:14:37;;;;;;;12.95;3.10;;;;;;;7.85;100.00;101149.91;5153017;27;20055;-70
2023/11/24 06:17:26;;;;;;;11.18;2.88;;;;;;;7.63;100.00;101147.03;5094438;28;20040;-69
2023/11/24 06:20:14;;;;;;;12.65;2.70;;;;;;;7.43;100.00;101143.91;5114209;27;20117;-68
2023/11/24 06:23:03;;;;;;;9.80;2.50;;;;;;;7.37;100.00;101148.41;5129069;27;20065;-68
2023/11/24 06:25:54;;;;;;;13.10;2.65;;;;;;;7.35;100.00;101128.81;5137029;27;20176;-69
2023/11/24 06:28:42;;;;;;;8.60;2.28;;;;;;;7.35;100.00;101150.50;5102749;27;20058;-70
2023/11/24 06:31:30;;;;;;;9.75;2.90;;;;;;;7.28;100.00;101149.00;5123105;27;20529;-70
2023/11/24 06:34:18;;;;;;;11.43;2.80;;;;;;;7.20;100.00;101136.66;5108992;27;20414;-70
2023/11/24 06:37:07;;;;;;;6.57;2.50;;;;;;;7.23;100.00;101136.16;5079646;28;20051;-70
2023/11/24 06:39:55;;;;;;;11.02;2.65;;;;;;;7.28;100.00;101143.59;5101188;28;20127;-69
2023/11/24 06:42:44;;;;;;;7.88;2.20;;;;;;;7.27;100.00;101141.94;5073658;28;20134;-69
2023/11/24 06:45:32;;;;;;;14.15;3.05;;;;;;;7.25;100.00;101134.84;5100907;27;20036;-70
2023/11/24 06:48:20;;;;;;;11.20;2.60;;;;;;;7.24;100.00;101133.22;5127271;27;20040;-70
2023/11/24 06:51:08;;;;;;;11.32;3.47;;;;;;;7.23;100.00;101131.56;5108381;27;20397;-66
2023/11/24 06:53:56;;;;;;;9.73;2.55;;;;;;;7.24;100.00;101133.22;5106884;27;20119;-67
2023/11/24 06:56:46;;;;;;;10.07;3.25;;;;;;;7.25;100.00;101128.63;5128988;27;20111;-66
2023/11/24 06:59:35;;;;;;;9.45;2.40;;;;;;;7.29;100.00;101137.09;5110664;28;20549;-69
2023/11/24 07:02:23;;;;;;;11.48;2.72;;;;;;;7.29;100.00;101134.38;5119370;27;20069;-64
2023/11/24 07:05:12;;;;;;;7.57;2.40;;;;;;;7.31;100.00;101134.97;5126726;27;20071;-65
2023/11/24 07:08:00;;;;;;;12.45;3.30;;;;;;;7.32;100.00;101128.50;5133958;27;20054;-64
2023/11/24 07:10:49;;;;;;;10.48;2.80;;;;;;;7.35;100.00;101128.00;5130160;27;20043;-63
2023/11/24 07:13:37;;;;;;;8.05;2.60;;;;;;;7.33;100.00;101135.56;4405413;27;10000723;-66
2023/11/24 07:16:25;;;;;;;10.10;2.67;;;;;;;7.29;100.00;101140.63;5114840;27;20177;-66
2023/11/24 07:19:14;;;;;;;7.55;2.55;;;;;;;7.26;100.00;101127.53;5077508;28;20040;-65
2023/11/24 07:22:02;;;;;;;10.88;2.90;;;;;;;7.16;100.00;101141.69;5098380;28;20047;-67
2023/11/24 07:24:50;;;;;;;11.50;3.05;;;;;;;7.12;100.00;101129.72;5104930;27;20043;-65
2023/11/24 07:27:38;;;;;;;11.57;3.08;;;;;;;7.08;100.00;101130.41;5097351;28;20031;-67
2023/11/24 07:30:26;;;;;;;10.23;2.75;;;;;;;7.14;100.00;101137.59;5131638;27;20057;-66
2023/11/24 07:33:15;;;;;;;13.38;3.30;;;;;;;7.18;100.00;101134.16;5096690;28;20054;-65
2023/11/24 07:36:04;;;;;;;11.43;2.80;;;;;;;7.21;100.00;101139.09;5080034;27;20043;-66
2023/11/24 07:38:52;;;;;;;12.02;3.90;;;;;;;7.25;100.00;101134.84;5107909;28;20277;-67
2023/11/24 07:41:40;;;;;;;11.85;3.38;;;;;;;7.27;100.00;101120.25;5109786;27;20048;-67
2023/11/24 07:44:31;;;;;;;11.93;3.17;;;;;;;7.29;100.00;101121.66;5103167;27;20115;-67
2023/11/24 07:47:20;;;;;;;10.52;2.97;;;;;;;7.31;100.00;101127.69;5073431;28;20188;-67
2023/11/24 07:50:09;;;;;;;9.18;2.85;;;;;;;7.29;100.00;101127.09;5097357;27;20552;-67
2023/11/24 07:52:57;;;;;;;11.82;3.40;;;;;;;7.30;100.00;101125.19;5112733;27;20347;-66
2023/11/24 07:55:47;;;;;;;12.52;3.28;;;;;;;7.30;100.00;101130.63;5081112;28;20047;-66
2023/11/24 07:58:36;;;;;;;14.02;3.58;;;;;;;7.28;100.00;101116.47;5082645;28;20120;-66
2023/11/24 08:01:24;;;;;;;15.88;4.10;;;;;;;7.21;100.00;101117.41;5078713;28;20048;-68
2023/11/24 08:04:12;;;;;;;9.85;3.17;;;;;;;7.11;100.00;101119.91;5080246;28;20044;-66
2023/11/24 08:07:00;;;;;;;14.82;2.80;;;;;;;7.04;100.00;101111.09;5078929;28;20036;-66
2023/11/24 08:09:48;;;;;;;10.63;2.47;;;;;;;6.95;100.00;101101.66;5093563;28;20048;-66
2023/11/24 08:12:36;;;;;;;9.52;2.78;;;;;;;6.90;100.00;101109.69;5092882;28;20059;-66
2023/11/24 08:15:25;;;;;;;8.73;2.35;;;;;;;6.92;100.00;101099.44;5065890;28;20404;-66
2023/11/24 08:18:13;;;;;;;8.05;2.65;;;;;;;6.94;100.00;101094.63;5091405;28;20496;-68
2023/11/24 08:21:02;;;;;;;7.18;2.50;;;;;;;6.94;100.00;101090.00;5071874;28;20043;-67
2023/11/24 08:23:50;;;;;;;10.57;2.70;;;;;;;6.97;100.00;101094.13;5082232;28;20133;-69
2023/11/24 08:26:39;;;;;;;6.95;2.47;;;;;;;6.97;100.00;101102.25;5094057;28;20048;-67
2023/11/24 08:29:27;;;;;;;11.88;2.70;;;;;;;6.98;100.00;101110.16;5054594;28;20129;-67
2023/11/24 08:32:15;;;;;;;9.32;2.55;;;;;;;6.93;100.00;101125.50;5094860;28;20047;-66
2023/11/24 08:35:04;;;;;;;9.07;2.70;;;;;;;6.94;100.00;101110.88;5093221;28;20079;-67
2023/11/24 08:37:52;;;;;;;7.68;2.50;;;;;;;6.91;100.00;101104.03;5079247;28;20055;-66
2023/11/24 08:40:41;;;;;;;9.18;2.53;;;;;;;6.90;100.00;101078.00;5094224;28;20064;-66
2023/11/24 08:43:29;;;;;;;7.68;2.65;;;;;;;6.83;100.00;101088.13;5077544;28;20050;-65
2023/11/24 08:46:17;;;;;;;7.60;2.38;;;;;;;6.67;100.00;101083.44;5076804;28;20032;-67
2023/11/24 08:49:10;;;;;;;5.72;2.40;;;;;;;6.65;100.00;101086.38;5091753;28;20512;-66
2023/11/24 08:51:59;;;;;;;8.65;2.05;;;;;;;6.63;100.00;101083.06;5069111;28;20040;-66
2023/11/24 08:54:49;;;;;;;11.52;2.42;;;;;;;6.66;100.00;101070.94;5076205;28;20404;-66
2023/11/24 08:57:37;;;;;;;6.38;2.30;;;;;;;6.82;100.00;101070.25;5086764;28;20051;-66
2023/11/24 09:00:27;;;;;;;8.48;2.30;;;;;;;6.82;100.00;101071.06;5096056;28;20048;-66
2023/11/24 09:03:15;;;;;;;8.43;2.40;;;;;;;6.79;100.00;101079.66;5098570;28;20404;-66
2023/11/24 09:06:03;;;;;;;7.13;2.47;;;;;;;6.79;100.00;101065.31;5112579;28;20044;-65
2023/11/24 09:08:51;;;;;;;8.82;2.42;;;;;;;6.75;100.00;101074.97;5110237;28;20039;-65
2023/11/24 09:11:40;;;;;;;9.57;2.35;;;;;;;6.76;100.00;101065.78;5111562;28;20044;-67
2023/11/24 09:14:28;;;;;;;9.32;2.67;;;;;;;6.79;100.00;101078.84;5112215;28;20482;-66
2023/11/24 09:17:16;;;;;;;7.57;2.63;;;;;;;6.73;100.00;101071.66;5116397;28;20047;-66
2023/11/24 09:20:08;;;;;;;9.73;2.70;;;;;;;6.72;100.00;101076.25;5113749;28;20039;-66
2023/11/24 09:22:56;;;;;;;22.85;6.13;;;;;;;6.80;100.00;101081.31;5097438;28;20503;-67
2023/11/24 09:25:44;;;;;;;8.30;2.42;;;;;;;6.91;100.00;101084.25;5096368;28;20575;-68
2023/11/24 09:28:32;;;;;;;10.52;2.90;;;;;;;6.87;100.00;101083.06;5110970;28;20044;-65
2023/11/24 09:31:21;;;;;;;10.18;2.80;;;;;;;6.87;100.00;101077.66;5122448;28;20116;-65
2023/11/24 09:34:10;;;;;;;9.63;2.72;;;;;;;6.89;100.00;101080.97;5111181;28;20047;-66
2023/11/24 09:36:58;;;;;;;12.30;2.90;;;;;;;6.90;100.00;101088.00;5101030;28;20048;-65
2023/11/24 09:39:46;;;;;;;8.27;2.53;;;;;;;6.89;100.00;101078.25;5122790;28;20138;-66
2023/11/24 09:42:40;;;;;;;8.60;2.30;;;;;;;6.87;100.00;101072.25;5119731;27;20499;-67
2023/11/24 09:45:30;;;;;;;10.95;2.25;;;;;;;6.85;100.00;101061.63;5088735;27;20043;-66
2023/11/24 09:48:19;;;;;;;8.55;2.45;;;;;;;6.81;100.00;101061.31;5122014;27;20048;-66
2023/11/24 09:51:12;;;;;;;8.43;2.38;;;;;;;6.76;100.00;101061.19;5109205;27;20047;-66
2023/11/24 09:54:03;;;;;;;7.38;2.40;;;;;;;6.79;100.00;101071.53;5114442;27;20168;-65
2023/11/24 09:56:50;;;;;;;8.70;2.70;;;;;;;6.73;100.00;101072.47;5097244;28;20415;-67
2023/11/24 09:59:38;;;;;;;8.95;2.47;;;;;;;6.69;100.00;101075.91;5081725;28;20052;-65
2023/11/24 10:02:27;;;;;;;8.80;2.53;;;;;;;6.73;100.00;101072.47;5086429;28;20044;-65
2023/11/24 10:05:19;;;;;;;13.73;2.70;;;;;;;6.74;100.00;101063.31;5102081;28;20188;-66
2023/11/24 10:08:07;;;;;;;8.13;2.47;;;;;;;6.75;100.00;101059.53;5112470;27;20047;-65
2023/11/24 10:11:12;;;;;;;8.90;2.58;;;;;;;6.76;100.00;101066.59;5105258;28;20059;-66
2023/11/24 10:14:04;;;;;;;8.50;2.50;;;;;;;6.80;100.00;101056.94;5104173;28;20047;-64
2023/11/24 10:16:52;;;;;;;7.97;2.50;;;;;;;6.79;100.00;101059.91;5105686;28;20141;-66
2023/11/24 10:19:40;;;;;;;9.90;2.78;;;;;;;6.81;100.00;101084.88;5119954;28;20403;-65
2023/11/24 10:22:29;;;;;;;8.82;2.42;;;;;;;6.78;100.00;101069.91;5109303;28;20438;-67
2023/11/24 10:25:22;;;;;;;8.30;2.33;;;;;;;6.79;100.00;101065.31;5087092;28;20416;-64
2023/11/24 10:28:11;;;;;;;9.05;2.45;;;;;;;6.75;100.00;101062.25;5102203;28;20040;-65
2023/11/24 10:30:59;;;;;;;8.82;2.30;;;;;;;6.63;100.00;101061.41;5119314;28;20048;-65
2023/11/24 10:33:47;;;;;;;7.85;2.60;;;;;;;6.56;100.00;101060.72;5103707;28;20051;-66
2023/11/24 10:36:36;;;;;;;6.90;1.98;;;;;;;6.58;100.00;101051.28;5116286;28;20153;-66
2023/11/24 10:39:25;;;;;;;6.45;2.20;;;;;;;6.56;100.00;101058.00;5100372;28;20411;-64
2023/11/24 10:42:15;;;;;;;8.13;2.33;;;;;;;6.49;100.00;101032.94;5100339;28;20061;-67
2023/11/24 10:45:06;;;;;;;8.05;2.50;;;;;;;6.54;100.00;101030.34;5088515;28;20047;-66
2023/11/24 10:48:15;;;;;;;10.35;2.95;;;;;;;6.60;100.00;101029.41;5100577;28;20040;-66
2023/11/24 10:51:29;;;;;;;6.95;2.35;;;;;;;6.67;100.00;101013.88;5087674;28;20043;-65
2023/11/24 10:54:25;;;;;;;11.40;3.03;;;;;;;6.71;100.00;101009.63;5110946;28;20191;-65
2023/11/24 10:57:14;;;;;;;10.07;2.92;;;;;;;6.77;100.00;101002.44;5081155;28;20504;-65
2023/11/24 11:00:03;;;;;;;14.95;3.97;;;;;;;6.91;100.00;101003.81;5097121;28;20047;-66
2023/11/24 11:02:53;;;;;;;9.20;2.47;;;;;;;7.06;100.00;101006.00;5078530;28;20044;-65
2023/11/24 11:06:12;;;;;;;9.90;2.90;;;;;;;7.04;100.00;100997.31;4517597;28;10000990;-66
2023/11/24 11:12:37;;;;;;;12.52;3.08;;;;;;;6.89;100.00;101007.84;5068223;28;20408;-66
2023/11/24 11:15:28;;;;;;;15.20;3.30;;;;;;;6.76;100.00;101006.22;5062520;28;20051;-67
2023/11/24 11:18:16;;;;;;;9.48;2.85;;;;;;;6.58;100.00;101029.63;5074852;28;20178;-67
2023/11/24 11:21:39;;;;;;;11.15;2.85;;;;;;;6.43;100.00;101018.47;5088913;28;20130;-68
2023/11/24 11:24:31;;;;;;;9.40;2.50;;;;;;;6.32;100.00;101006.56;5075854;28;20490;-66
2023/11/24 11:27:24;;;;;;;10.45;2.53;;;;;;;6.21;100.00;101004.72;5087794;28;20040;-68
2023/11/24 11:30:22;;;;;;;11.80;2.45;;;;;;;6.09;100.00;101002.00;5085289;28;20147;-67
2023/11/24 11:33:13;;;;;;;5.63;2.20;;;;;;;6.03;100.00;101021.03;5077711;28;20044;-65
2023/11/24 11:36:05;;;;;;;4.78;2.20;;;;;;;6.01;100.00;101013.13;5103497;28;20089;-64
2023/11/24 11:38:53;;;;;;;7.68;2.28;;;;;;;6.01;100.00;100993.38;5093602;28;20086;-67
2023/11/24 11:41:44;;;;;;;6.78;2.25;;;;;;;6.10;100.00;100992.00;5087878;28;20040;-68
2023/11/24 11:44:39;;;;;;;5.55;2.00;;;;;;;6.19;100.00;100990.59;5081332;28;20051;-66
2023/11/24 11:47:28;;;;;;;8.02;2.28;;;;;;;6.22;100.00;101000.13;5067028;28;20044;-66
2023/11/24 11:50:21;;;;;;;7.72;2.75;;;;;;;6.23;100.00;101008.00;5026902;28;20082;-66
2023/11/24 11:53:09;;;;;;;7.82;2.45;;;;;;;6.28;100.00;101000.00;5092141;28;20248;-67
2023/11/24 11:56:01;;;;;;;10.05;2.80;;;;;;;6.36;100.00;101001.53;5078743;28;20051;-66
2023/11/24 11:58:49;;;;;;;8.13;2.60;;;;;;;6.42;100.00;100987.03;5096315;28;20111;-67
2023/11/24 12:01:37;;;;;;;13.93;3.13;;;;;;;6.52;100.00;100983.75;5116231;27;20051;-66
2023/11/24 12:04:28;;;;;;;8.95;2.75;;;;;;;6.56;100.00;100985.72;5081336;28;20047;-67
2023/11/24 12:07:18;;;;;;;9.88;3.00;;;;;;;6.63;100.00;100974.78;5100943;28;20027;-67
2023/11/24 12:10:11;;;;;;;10.30;2.90;;;;;;;6.59;100.00;100962.78;5100058;27;20035;-67
2023/11/24 12:13:04;;;;;;;11.70;2.75;;;;;;;6.61;100.00;100964.22;5103585;28;20480;-66
2023/11/24 12:15:53;;;;;;;14.93;3.40;;;;;;;6.59;100.00;100968.19;5114503;28;20495;-66
2023/11/24 12:18:41;;;;;;;11.75;3.53;;;;;;;6.60;100.00;100946.31;5112980;28;20054;-66
2023/11/24 12:21:30;;;;;;;12.55;3.75;;;;;;;6.60;100.00;100948.19;5097804;28;20085;-67
2023/11/24 12:24:22;;;;;;;12.52;3.22;;;;;;;6.69;100.00;100962.19;5113734;28;20126;-67
2023/11/24 12:27:11;;;;;;;15.88;3.40;;;;;;;6.75;100.00;100955.81;5084667;28;20134;-66
2023/11/24 12:30:03;;;;;;;12.80;3.40;;;;;;;6.75;100.00;100956.63;5072016;28;20047;-66
2023/11/24 12:32:52;;;;;;;16.85;4.05;;;;;;;6.78;100.00;100945.34;5091870;28;20047;-68
2023/11/24 12:35:48;;;;;;;16.80;3.42;;;;;;;6.77;100.00;100932.84;5099203;28;20126;-67
2023/11/24 12:38:36;;;;;;;13.80;3.80;;;;;;;6.80;100.00;100928.81;5098799;28;20044;-67
2023/11/24 12:41:24;;;;;;;11.80;3.20;;;;;;;6.83;100.00;100926.47;5085129;28;20051;-67
2023/11/24 12:44:14;;;;;;;12.25;3.72;;;;;;;6.88;100.00;100917.63;5098416;28;20085;-66
2023/11/24 12:47:14;;;;;;;15.07;4.20;;;;;;;6.85;100.00;100909.97;5113797;28;20130;-67
2023/11/24 12:50:11;;;;;;;13.85;3.78;;;;;;;6.83;100.00;100925.63;5098155;28;20172;-67
2023/11/24 12:52:59;;;;;;;13.98;3.55;;;;;;;6.86;100.00;100913.53;5098296;28;20051;-66
2023/11/24 12:55:47;;;;;;;15.02;3.53;;;;;;;6.86;100.00;100905.41;5114008;28;20464;-68
2023/11/24 12:58:35;;;;;;;14.50;4.10;;;;;;;6.89;100.00;100913.03;5084141;28;20047;-67
2023/11/24 13:01:23;;;;;;;18.27;3.60;;;;;;;6.88;100.00;100906.81;5110340;28;20208;-66
2023/11/24 13:04:13;;;;;;;15.35;4.00;;;;;;;6.87;100.00;100912.44;5114653;28;20048;-67